createdAt,value
2022-09-12T00:02:05.676Z,99477.47
2022-09-12T00:04:36.607Z,99490.81
2022-09-12T00:07:05.307Z,99483.00
2022-09-12T00:09:34.557Z,99484.88
2022-09-12T00:12:03.642Z,99490.97
2022-09-12T00:14:32.575Z,99487.63
2022-09-12T00:17:03.056Z,99499.81
2022-09-12T00:19:32.308Z,99490.25
2022-09-12T00:22:02.727Z,99483.19
2022-09-12T00:24:31.903Z,99486.75
2022-09-12T00:27:00.658Z,99491.16
2022-09-12T00:29:29.774Z,99482.44
2022-09-12T00:31:58.427Z,99471.16
2022-09-12T00:34:27.094Z,99480.84
2022-09-12T00:36:56.363Z,99473.06
2022-09-12T00:39:27.108Z,99476.06
2022-09-12T00:41:55.616Z,99476.97
2022-09-12T00:44:50.771Z,99481.41
2022-09-12T00:47:23.770Z,99476.53
2022-09-12T00:49:56.756Z,99481.78
2022-09-12T00:52:29.496Z,99480.16
2022-09-12T00:55:04.788Z,99488.22
2022-09-12T00:57:37.347Z,99484.09
2022-09-12T01:00:13.717Z,99483.53
2022-09-12T01:02:43.263Z,99483.69
2022-09-12T01:05:12.766Z,99484.63
2022-09-12T01:07:42.013Z,99484.72
2022-09-12T01:10:13.220Z,99487.44
2022-09-12T01:12:44.653Z,99493.72
2022-09-12T01:15:14.810Z,99490.25
2022-09-12T01:18:00.427Z,99486.81
2022-09-12T01:20:43.324Z,99488.72
2022-09-12T01:23:41.843Z,99490.78
2022-09-12T01:26:44.437Z,99485.75
2022-09-12T01:29:34.073Z,99487.66
2022-09-12T01:32:12.229Z,99492.03
2022-09-12T01:35:17.914Z,99486.03
2022-09-12T01:37:57.360Z,99489.69
2022-09-12T01:40:32.808Z,99478.50
2022-09-12T01:43:11.812Z,99487.22
2022-09-12T01:45:55.587Z,99480.53
2022-09-12T01:48:31.326Z,99491.13
2022-09-12T01:51:07.485Z,99489.53
2022-09-12T01:53:42.488Z,99491.41
2022-09-12T01:56:15.338Z,99495.91
2022-09-12T01:58:49.073Z,99498.63
2022-09-12T02:01:23.033Z,99501.34
2022-09-12T02:03:58.581Z,99499.72
2022-09-12T02:06:31.725Z,99498.88
2022-09-12T02:09:04.706Z,99502.28
2022-09-12T02:11:36.871Z,99502.28
2022-09-12T02:14:09.423Z,99498.78
2022-09-12T02:16:43.446Z,99504.13
2022-09-12T02:19:17.693Z,99497.34
2022-09-12T02:21:51.467Z,99499.16
2022-09-12T02:24:23.646Z,99506.81
2022-09-12T02:26:56.847Z,99506.81
2022-09-12T02:29:25.657Z,99505.22
2022-09-12T02:31:59.278Z,99507.03
2022-09-12T02:34:46.439Z,99506.16
2022-09-12T02:37:26.318Z,99508.72
2022-09-12T02:39:56.223Z,99506.00
2022-09-12T02:42:25.802Z,99516.66
2022-09-12T02:44:56.744Z,99516.66
2022-09-12T02:47:30.197Z,99518.53
2022-09-12T02:50:01.938Z,99517.75
2022-09-12T02:52:30.910Z,99517.75
2022-09-12T02:55:00.394Z,99515.22
2022-09-12T02:57:28.978Z,99524.97
2022-09-12T03:00:02.247Z,99530.16
2022-09-12T03:02:38.145Z,99532.00
2022-09-12T03:05:28.134Z,99528.53
2022-09-12T03:08:26.314Z,99538.19
2022-09-12T03:11:21.217Z,99532.94
2022-09-12T03:14:02.059Z,99540.88
2022-09-12T03:16:41.405Z,99547.16
2022-09-12T03:19:21.966Z,99538.53
2022-09-12T03:21:59.689Z,99547.50
2022-09-12T03:24:33.745Z,99555.44
2022-09-12T03:27:10.214Z,99558.06
2022-09-12T03:29:41.601Z,99555.38
2022-09-12T03:32:09.820Z,99556.97
2022-09-12T03:34:38.104Z,99558.66
2022-09-12T03:37:08.619Z,99562.16
2022-09-12T03:39:37.187Z,99569.84
2022-09-12T03:42:06.065Z,99567.31
2022-09-12T03:44:34.676Z,99574.47
2022-09-12T03:47:03.140Z,99571.03
2022-09-12T03:49:31.724Z,99577.22
2022-09-12T03:52:00.409Z,99573.75
2022-09-12T03:54:30.397Z,99579.72
2022-09-12T03:56:58.830Z,99577.09
2022-09-12T03:59:27.371Z,99577.09
2022-09-12T04:01:56.025Z,99571.03
2022-09-12T04:04:24.509Z,99577.09
2022-09-12T04:06:52.940Z,99574.41
2022-09-12T04:09:21.593Z,99580.50
2022-09-12T04:11:51.391Z,99576.97
2022-09-12T04:14:19.958Z,99580.44
2022-09-12T04:16:48.624Z,99576.97
2022-09-12T04:19:17.145Z,99577.63
2022-09-12T04:21:45.466Z,99583.72
2022-09-12T04:24:14.014Z,99585.41
2022-09-12T04:26:42.515Z,99588.13
2022-09-12T04:29:15.149Z,99591.44
2022-09-12T04:31:45.079Z,99595.75
2022-09-12T04:34:13.781Z,99596.50
2022-09-12T04:36:43.064Z,99601.69
2022-09-12T04:39:12.855Z,99600.66
2022-09-12T04:41:42.781Z,99604.97
2022-09-12T04:44:15.730Z,99601.44
2022-09-12T04:46:45.896Z,99607.59
2022-09-12T04:49:16.328Z,99607.59
2022-09-12T04:51:45.462Z,99598.97
2022-09-12T04:54:16.326Z,99612.03
2022-09-12T04:56:47.350Z,99612.84
2022-09-12T04:59:18.431Z,99617.28
2022-09-12T05:01:48.682Z,99614.66
2022-09-12T05:04:18.387Z,99620.66
2022-09-12T05:06:48.309Z,99616.06
2022-09-12T05:09:17.216Z,99620.41
2022-09-12T05:12:04.571Z,99623.03
2022-09-12T05:14:36.021Z,99630.72
2022-09-12T05:17:06.174Z,99631.50
2022-09-12T05:19:34.967Z,99632.34
2022-09-12T05:22:05.113Z,99627.94
2022-09-12T05:24:34.065Z,99631.31
2022-09-12T05:27:04.875Z,99633.94
2022-09-12T05:29:35.448Z,99636.41
2022-09-12T05:32:04.215Z,99646.84
2022-09-12T05:34:32.832Z,99646.84
2022-09-12T05:37:01.830Z,99648.44
2022-09-12T05:39:30.699Z,99652.69
2022-09-12T05:41:59.225Z,99645.66
2022-09-12T05:44:28.306Z,99652.59
2022-09-12T05:46:58.124Z,99654.44
2022-09-12T05:49:26.594Z,99646.69
2022-09-12T05:51:55.355Z,99653.53
2022-09-12T05:54:25.545Z,99652.53
2022-09-12T05:56:55.424Z,99648.97
2022-09-12T05:59:24.921Z,99646.50
2022-09-12T06:01:53.516Z,99648.28
2022-09-12T06:04:23.982Z,99642.84
2022-09-12T06:06:52.988Z,99637.78
2022-09-12T06:09:23.026Z,99639.28
2022-09-12T06:11:51.964Z,99635.75
2022-09-12T06:14:21.110Z,99640.91
2022-09-12T06:16:50.185Z,99639.13
2022-09-12T06:19:20.298Z,99633.88
2022-09-12T06:21:51.929Z,99641.75
2022-09-12T06:24:22.216Z,99635.66
2022-09-12T06:26:52.905Z,99646.19
2022-09-12T06:29:22.199Z,99638.97
2022-09-12T06:31:51.310Z,99637.88
2022-09-12T06:34:20.559Z,99637.09
2022-09-12T06:36:51.790Z,99638.03
2022-09-12T06:39:22.896Z,99646.84
2022-09-12T06:41:53.316Z,99646.56
2022-09-12T06:44:35.272Z,99652.53
2022-09-12T06:47:04.786Z,99647.06
2022-09-12T06:49:33.897Z,99655.81
2022-09-12T06:52:04.079Z,99656.66
2022-09-12T06:54:33.089Z,99658.13
2022-09-12T06:57:02.170Z,99652.78
2022-09-12T06:59:31.187Z,99656.16
2022-09-12T07:02:00.013Z,99664.81
2022-09-12T07:04:29.197Z,99667.63
2022-09-12T07:06:57.946Z,99671.19
2022-09-12T07:09:29.975Z,99667.81
2022-09-12T07:11:58.333Z,99670.31
2022-09-12T07:14:27.246Z,99669.50
2022-09-12T07:16:55.901Z,99673.81
2022-09-12T07:19:27.839Z,99675.50
2022-09-12T07:21:58.749Z,99677.19
2022-09-12T07:24:32.135Z,99680.50
2022-09-12T07:27:01.296Z,99686.50
2022-09-12T07:29:36.910Z,99683.03
2022-09-12T07:32:07.869Z,99683.72
2022-09-12T07:34:37.415Z,99684.41
2022-09-12T07:37:06.199Z,99689.50
2022-09-12T07:39:38.096Z,99692.19
2022-09-12T07:42:11.250Z,99697.44
2022-09-12T07:44:39.974Z,99694.75
2022-09-12T07:47:08.565Z,99695.56
2022-09-12T07:49:37.308Z,99699.72
2022-09-12T07:52:06.677Z,99697.09
2022-09-12T07:54:36.863Z,99704.03
2022-09-12T07:57:05.814Z,99712.88
2022-09-12T07:59:52.382Z,99711.09
2022-09-12T08:02:22.210Z,99717.31
2022-09-12T08:04:51.826Z,99712.78
2022-09-12T08:07:20.426Z,99717.19
2022-09-12T08:09:50.584Z,99718.13
2022-09-12T08:12:20.438Z,99720.69
2022-09-12T08:14:49.202Z,99730.25
2022-09-12T08:17:18.003Z,99727.47
2022-09-12T08:19:47.048Z,99732.72
2022-09-12T08:22:15.652Z,99730.84
2022-09-12T08:24:44.538Z,99736.16
2022-09-12T08:27:15.002Z,99725.56
2022-09-12T08:29:43.503Z,99731.78
2022-09-12T08:32:12.096Z,99735.25
2022-09-12T08:34:40.397Z,99736.28
2022-09-12T08:37:09.051Z,99734.31
2022-09-12T08:39:37.880Z,99737.81
2022-09-12T08:42:08.253Z,99741.25
2022-09-12T08:45:16.090Z,99737.81
2022-09-12T08:47:47.395Z,99738.63
2022-09-12T08:50:19.446Z,99736.09
2022-09-12T08:52:58.860Z,99735.94
2022-09-12T08:55:33.262Z,99736.59
2022-09-12T08:58:03.515Z,99740.00
2022-09-12T09:00:42.261Z,99739.31
2022-09-12T09:03:47.107Z,99747.13
2022-09-12T09:06:27.098Z,99738.28
2022-09-12T09:09:02.214Z,99751.03
2022-09-12T09:11:49.193Z,99748.13
2022-09-12T09:14:50.628Z,99751.41
2022-09-12T09:17:29.238Z,99752.84
2022-09-12T09:20:05.641Z,99750.06
2022-09-12T09:22:44.112Z,99753.19
2022-09-12T09:25:23.043Z,99755.38
2022-09-12T09:28:00.106Z,99754.94
2022-09-12T09:30:32.357Z,99759.75
2022-09-12T09:33:07.985Z,99758.94
2022-09-12T09:35:45.887Z,99763.06
2022-09-12T09:38:25.195Z,99756.78
2022-09-12T09:41:06.739Z,99752.94
2022-09-12T09:43:35.987Z,99759.94
2022-09-12T09:46:04.904Z,99759.31
2022-09-12T09:48:37.602Z,99757.06
2022-09-12T09:51:09.487Z,99759.31
2022-09-12T09:53:42.184Z,99757.81
2022-09-12T09:56:19.243Z,99763.34
2022-09-12T09:58:49.270Z,99763.03
2022-09-12T10:01:19.365Z,99769.31
2022-09-12T10:03:55.072Z,99776.91
2022-09-12T10:06:28.524Z,99769.59
2022-09-12T10:09:09.645Z,99772.84
2022-09-12T10:11:45.167Z,99781.41
2022-09-12T10:14:35.325Z,99782.75
2022-09-12T10:17:23.437Z,99782.47
2022-09-12T10:20:17.463Z,99783.16
2022-09-12T10:22:42.677Z,99784.38
2022-09-12T10:25:18.286Z,99785.22
2022-09-12T10:27:55.452Z,99794.53
2022-09-12T10:30:26.134Z,99784.84
2022-09-12T10:32:59.130Z,99787.75
2022-09-12T10:35:34.108Z,99789.75
2022-09-12T10:38:06.375Z,99795.56
2022-09-12T10:40:39.326Z,99794.81
2022-09-12T10:43:19.001Z,99800.84
2022-09-12T10:45:48.265Z,99801.97
2022-09-12T10:48:30.258Z,99800.28
2022-09-12T10:51:01.701Z,99799.88
2022-09-12T10:53:34.823Z,99806.66
2022-09-12T10:56:08.109Z,99804.88
2022-09-12T10:58:57.106Z,99800.84
2022-09-12T11:01:38.490Z,99802.81
2022-09-12T11:04:22.818Z,99801.78
2022-09-12T11:07:02.574Z,99809.13
2022-09-12T11:09:39.719Z,99810.34
2022-09-12T11:12:19.853Z,99813.25
2022-09-12T11:15:00.638Z,99805.81
2022-09-12T11:17:38.831Z,99810.03
2022-09-12T11:20:43.808Z,99808.81
2022-09-12T11:23:37.662Z,99813.78
2022-09-12T11:26:18.732Z,99819.34
2022-09-12T11:28:59.016Z,99821.97
2022-09-12T11:31:50.123Z,99819.22
2022-09-12T11:34:29.079Z,99826.84
2022-09-12T11:37:15.084Z,99815.44
2022-09-12T11:39:55.613Z,99820.56
2022-09-12T11:42:32.795Z,99818.78
2022-09-12T11:45:09.013Z,99830.06
2022-09-12T11:47:38.833Z,99827.13
2022-09-12T11:50:19.852Z,99828.06
2022-09-12T11:52:48.484Z,99827.88
2022-09-12T11:55:23.776Z,99831.16
2022-09-12T11:57:55.162Z,99827.59
2022-09-12T12:00:26.788Z,99835.81
2022-09-12T12:03:04.407Z,99835.25
2022-09-12T12:05:39.016Z,99834.72
2022-09-12T12:08:08.821Z,99833.06
2022-09-12T12:10:40.723Z,99838.63
2022-09-12T12:13:19.563Z,99842.41
2022-09-12T12:15:51.083Z,99848.94
2022-09-12T12:18:21.751Z,99844.69
2022-09-12T12:20:51.837Z,99843.94
2022-09-12T12:23:26.394Z,99837.91
2022-09-12T12:25:57.735Z,99843.84
2022-09-12T12:29:00.230Z,99845.53
2022-09-12T12:31:29.137Z,99847.91
2022-09-12T12:34:24.165Z,99843.19
2022-09-12T12:36:54.251Z,99847.31
2022-09-12T12:40:06.169Z,99840.13
2022-09-12T12:43:07.865Z,99843.56
2022-09-12T12:46:05.863Z,99843.81
2022-09-12T12:49:03.836Z,99845.22
2022-09-12T12:52:06.711Z,99845.22
2022-09-12T12:54:56.448Z,99846.06
2022-09-12T12:57:49.478Z,99845.97
2022-09-12T13:00:36.370Z,99844.28
2022-09-12T13:03:19.277Z,99848.59
2022-09-12T13:05:50.835Z,99848.50
2022-09-12T13:08:31.822Z,99855.47
2022-09-12T13:11:03.175Z,99852.75
2022-09-12T13:13:38.091Z,99847.28
2022-09-12T13:16:11.120Z,99861.03
2022-09-12T13:18:44.983Z,99859.88
2022-09-12T13:21:16.579Z,99853.66
2022-09-12T13:23:47.022Z,99853.47
2022-09-12T13:26:25.459Z,99848.19
2022-09-12T13:29:17.549Z,99849.66
2022-09-12T13:31:52.713Z,99854.56
2022-09-12T13:34:24.033Z,99850.00
2022-09-12T13:37:16.524Z,99846.97
2022-09-12T13:39:49.842Z,99848.25
2022-09-12T13:42:40.782Z,99833.47
2022-09-12T13:45:16.255Z,99842.91
2022-09-12T13:47:47.800Z,99847.75
2022-09-12T13:50:20.790Z,99842.28
2022-09-12T13:52:54.944Z,99844.84
2022-09-12T13:55:33.089Z,99838.69
2022-09-12T13:58:03.784Z,99851.06
2022-09-12T14:00:37.453Z,99850.00
2022-09-12T14:03:45.559Z,99845.69
2022-09-12T14:06:14.853Z,99850.00
2022-09-12T14:08:45.052Z,99847.56
2022-09-12T14:11:20.154Z,99846.84
2022-09-12T14:13:48.738Z,99851.69
2022-09-12T14:16:17.281Z,99847.44
2022-09-12T14:18:50.071Z,99851.97
2022-09-12T14:21:34.284Z,99846.16
2022-09-12T14:24:05.935Z,99847.84
2022-09-12T14:26:36.755Z,99853.13
2022-09-12T14:29:10.683Z,99839.91
2022-09-12T14:31:41.647Z,99845.72
2022-09-12T14:34:14.456Z,99860.56
2022-09-12T14:36:47.049Z,99847.66
2022-09-12T14:39:26.236Z,99851.66
2022-09-12T14:42:05.713Z,99861.03
2022-09-12T14:44:36.493Z,99850.69
2022-09-12T14:47:16.360Z,99849.22
2022-09-12T14:49:46.676Z,99854.69
2022-09-12T14:52:26.992Z,99858.28
2022-09-12T14:55:01.063Z,99864.59
2022-09-12T14:57:36.889Z,99859.84
2022-09-12T15:00:26.424Z,99864.47
2022-09-12T15:02:55.972Z,99862.03
2022-09-12T15:05:28.297Z,99871.00
2022-09-12T15:08:00.779Z,99868.53
2022-09-12T15:10:33.282Z,99862.53
2022-09-12T15:13:14.338Z,99867.91
2022-09-12T15:15:45.599Z,99867.13
2022-09-12T15:18:15.153Z,99865.44
2022-09-12T15:20:47.740Z,99872.53
2022-09-12T15:23:24.361Z,99868.16
2022-09-12T15:25:53.308Z,99866.50
2022-09-12T15:28:24.163Z,99868.16
2022-09-12T15:30:56.202Z,99876.00
2022-09-12T15:33:26.765Z,99867.25
2022-09-12T15:35:56.752Z,99871.56
2022-09-12T15:38:26.739Z,99874.03
2022-09-12T15:40:56.010Z,99875.72
2022-09-12T15:43:26.465Z,99874.78
2022-09-12T15:45:55.463Z,99874.03
2022-09-12T15:48:24.927Z,99872.13
2022-09-12T15:50:54.139Z,99870.53
2022-09-12T15:53:24.242Z,99867.13
2022-09-12T15:55:53.255Z,99867.91
2022-09-12T15:58:23.065Z,99866.31
2022-09-12T16:00:52.211Z,99874.94
2022-09-12T16:03:24.497Z,99873.25
2022-09-12T16:05:58.353Z,99870.81
2022-09-12T16:08:29.772Z,99873.44
2022-09-12T16:11:00.832Z,99873.44
2022-09-12T16:13:30.283Z,99867.63
2022-09-12T16:16:00.218Z,99867.75
2022-09-12T16:18:29.751Z,99872.34
2022-09-12T16:20:58.991Z,99869.63
2022-09-12T16:23:29.482Z,99865.38
2022-09-12T16:25:59.250Z,99868.13
2022-09-12T16:28:29.584Z,99869.16
2022-09-12T16:30:59.726Z,99863.25
2022-09-12T16:33:30.426Z,99872.94
2022-09-12T16:36:03.450Z,99869.56
2022-09-12T16:38:34.123Z,99869.75
2022-09-12T16:41:03.666Z,99866.38
2022-09-12T16:43:34.005Z,99867.38
2022-09-12T16:46:04.304Z,99871.78
2022-09-12T16:48:33.795Z,99875.47
2022-09-12T16:51:07.073Z,99880.84
2022-09-12T16:53:42.318Z,99877.81
2022-09-12T16:56:11.683Z,99878.88
2022-09-12T16:58:42.218Z,99878.22
2022-09-12T17:01:15.802Z,99883.69
2022-09-12T17:03:44.699Z,99883.03
2022-09-12T17:06:16.697Z,99878.88
2022-09-12T17:08:48.423Z,99884.44
2022-09-12T17:11:19.596Z,99886.44
2022-09-12T17:14:06.150Z,99885.66
2022-09-12T17:16:36.414Z,99883.31
2022-09-12T17:19:05.734Z,99889.50
2022-09-12T17:21:35.323Z,99885.28
2022-09-12T17:24:05.562Z,99885.19
2022-09-12T17:26:34.230Z,99886.88
2022-09-12T17:29:03.235Z,99889.63
2022-09-12T17:31:32.375Z,99889.63
2022-09-12T17:34:02.129Z,99894.06
2022-09-12T17:36:32.400Z,99897.63
2022-09-12T17:39:02.999Z,99898.47
2022-09-12T17:41:33.777Z,99897.63
2022-09-12T17:44:03.869Z,99897.81
2022-09-12T17:46:35.535Z,99899.63
2022-09-12T17:49:06.559Z,99899.69
2022-09-12T17:51:36.399Z,99905.88
2022-09-12T17:54:08.549Z,99904.13
2022-09-12T17:56:39.593Z,99916.25
2022-09-12T17:59:10.064Z,99916.25
2022-09-12T18:01:56.895Z,99910.25
2022-09-12T18:04:27.983Z,99912.13
2022-09-12T18:06:57.929Z,99906.84
2022-09-12T18:09:26.846Z,99908.66
2022-09-12T18:11:58.148Z,99905.31
2022-09-12T18:14:27.925Z,99909.00
2022-09-12T18:16:57.902Z,99906.34
2022-09-12T18:19:27.266Z,99902.97
2022-09-12T18:21:56.725Z,99907.47
2022-09-12T18:24:26.728Z,99897.13
2022-09-12T18:26:57.861Z,99905.03
2022-09-12T18:29:28.112Z,99898.25
2022-09-12T18:31:56.712Z,99900.97
2022-09-12T18:34:28.586Z,99900.31
2022-09-12T18:37:02.070Z,99902.09
2022-09-12T18:39:33.083Z,99899.66
2022-09-12T18:42:03.666Z,99903.41
2022-09-12T18:44:32.553Z,99895.59
2022-09-12T18:47:02.324Z,99894.00
2022-09-12T18:49:31.881Z,99897.56
2022-09-12T18:52:03.043Z,99894.16
2022-09-12T18:54:31.740Z,99885.44
2022-09-12T18:57:00.789Z,99893.22
2022-09-12T18:59:31.239Z,99898.41
2022-09-12T19:02:01.323Z,99888.72
2022-09-12T19:04:33.204Z,99887.94
2022-09-12T19:07:02.616Z,99896.78
2022-09-12T19:09:31.874Z,99890.31
2022-09-12T19:12:00.926Z,99889.47
2022-09-12T19:14:31.914Z,99889.84
2022-09-12T19:17:00.655Z,99886.47
2022-09-12T19:19:29.345Z,99888.31
2022-09-12T19:21:58.219Z,99877.13
2022-09-12T19:24:27.022Z,99879.69
2022-09-12T19:26:55.585Z,99883.22
2022-09-12T19:29:24.915Z,99876.25
2022-09-12T19:31:56.492Z,99876.25
2022-09-12T19:34:25.769Z,99884.09
2022-09-12T19:36:55.122Z,99882.31
2022-09-12T19:39:24.461Z,99885.69
2022-09-12T19:41:54.142Z,99886.63
2022-09-12T19:44:27.965Z,99875.31
2022-09-12T19:46:58.749Z,99875.44
2022-09-12T19:49:27.440Z,99873.53
2022-09-12T19:51:57.049Z,99865.56
2022-09-12T19:54:25.766Z,99870.91
2022-09-12T19:56:54.566Z,99871.78
2022-09-12T19:59:23.240Z,99874.28
2022-09-12T20:01:51.845Z,99869.13
2022-09-12T20:04:21.867Z,99868.28
2022-09-12T20:06:50.430Z,99869.31
2022-09-12T20:09:20.848Z,99869.38
2022-09-12T20:11:49.583Z,99879.94
2022-09-12T20:14:18.213Z,99858.09
2022-09-12T20:16:47.072Z,99869.47
2022-09-12T20:19:16.125Z,99872.88
2022-09-12T20:21:46.246Z,99863.38
2022-09-12T20:24:16.080Z,99866.75
2022-09-12T20:26:45.320Z,99874.97
2022-09-12T20:29:14.459Z,99870.25
2022-09-12T20:31:44.263Z,99876.47
2022-09-12T20:34:16.917Z,99876.63
2022-09-12T20:36:47.805Z,99863.72
2022-09-12T20:39:19.186Z,99871.53
2022-09-12T20:41:48.643Z,99873.22
2022-09-12T20:44:17.222Z,99875.28
2022-09-12T20:46:46.421Z,99875.47
2022-09-12T20:49:15.114Z,99864.16
2022-09-12T20:51:43.883Z,99865.97
2022-09-12T20:54:14.384Z,99862.63
2022-09-12T20:56:43.382Z,99859.31
2022-09-12T20:59:13.406Z,99856.59
2022-09-12T21:01:42.445Z,99849.16
2022-09-12T21:04:14.977Z,99845.75
2022-09-12T21:06:43.867Z,99848.63
2022-09-12T21:09:14.988Z,99850.84
2022-09-12T21:11:43.647Z,99847.56
2022-09-12T21:14:12.573Z,99850.50
2022-09-12T21:16:41.303Z,99842.97
2022-09-12T21:19:11.110Z,99838.44
2022-09-12T21:21:39.943Z,99851.34
2022-09-12T21:24:08.792Z,99849.06
2022-09-12T21:26:39.178Z,99852.97
2022-09-12T21:29:09.233Z,99846.44
2022-09-12T21:31:38.383Z,99844.16
2022-09-12T21:34:07.245Z,99858.31
2022-09-12T21:36:36.044Z,99852.28
2022-09-12T21:39:07.102Z,99854.16
2022-09-12T21:41:35.903Z,99853.66
2022-09-12T21:44:06.216Z,99852.13
2022-09-12T21:46:35.045Z,99849.72
2022-09-12T21:49:03.692Z,99846.34
2022-09-12T21:51:32.233Z,99855.31
2022-09-12T21:54:00.800Z,99845.91
2022-09-12T21:56:30.696Z,99845.91
2022-09-12T21:58:59.168Z,99845.97
2022-09-12T22:01:29.218Z,99843.47
2022-09-12T22:03:58.045Z,99843.47
2022-09-12T22:06:26.534Z,99847.78
2022-09-12T22:08:54.898Z,99853.03
2022-09-12T22:11:23.901Z,99854.47
2022-09-12T22:13:52.576Z,99859.41
2022-09-12T22:16:21.271Z,99856.72
2022-09-12T22:18:51.424Z,99854.97
2022-09-12T22:21:22.198Z,99858.56
2022-09-12T22:24:04.577Z,99844.66
2022-09-12T22:26:42.119Z,99839.47
2022-09-12T22:29:16.542Z,99840.34
2022-09-12T22:31:47.273Z,99841.25
2022-09-12T22:34:17.925Z,99834.63
2022-09-12T22:36:49.037Z,99826.31
2022-09-12T22:39:18.111Z,99822.41
2022-09-12T22:41:46.897Z,99820.00
2022-09-12T22:44:17.855Z,99820.00
2022-09-12T22:46:46.592Z,99821.88
2022-09-12T22:49:15.914Z,99819.53
2022-09-12T22:51:47.115Z,99822.66
2022-09-12T22:54:15.921Z,99822.97
2022-09-12T22:56:44.576Z,99825.75
2022-09-12T22:59:16.031Z,99820.22
2022-09-12T23:01:44.719Z,99824.41
2022-09-12T23:04:13.461Z,99832.75
2022-09-12T23:06:42.062Z,99835.94
2022-09-12T23:09:12.894Z,99832.94
2022-09-12T23:11:42.050Z,99836.78
2022-09-12T23:14:11.823Z,99832.00
2022-09-12T23:16:40.597Z,99831.53
2022-09-12T23:19:08.966Z,99837.84
2022-09-12T23:21:38.070Z,99827.66
2022-09-12T23:24:07.099Z,99825.34
2022-09-12T23:26:37.078Z,99827.25
2022-09-12T23:29:06.857Z,99824.00
2022-09-12T23:31:36.384Z,99823.31
2022-09-12T23:34:07.051Z,99823.47
2022-09-12T23:36:35.802Z,99823.47
2022-09-12T23:39:04.551Z,99824.28
2022-09-12T23:41:33.666Z,99826.00
2022-09-12T23:44:04.044Z,99828.56
2022-09-12T23:46:33.080Z,99819.78
2022-09-12T23:49:02.178Z,99824.84
2022-09-12T23:51:31.587Z,99823.00
2022-09-12T23:54:00.314Z,99823.00
2022-09-12T23:56:29.190Z,99816.16
2022-09-12T23:58:57.896Z,99822.31
